Time;durP1;ratioP1;P1;durP2;ratioP2;P2;SDS_P1;SDS_P2;PMS_P1;PMS_P2;Temp;Humidity;BMP_temperature;BMP_pressure;BME280_temperature;BME280_humidity;BME280_pressure;Samples;Min_cycle;Max_cycle;Signal;HPM_P1;HPM_P2
2023/08/09 00:02:00;;;;;;;2.13;1.57;;;21.50;99.90;;;;;;5069577;28;20836;-53
2023/08/09 00:04:27;;;;;;;2.10;1.40;;;21.50;99.90;;;;;;5067361;28;20460;-54
2023/08/09 00:06:53;;;;;;;3.20;1.50;;;21.50;99.90;;;;;;5062607;28;20459;-56
2023/08/09 00:09:21;;;;;;;1.50;1.40;;;21.50;99.90;;;;;;5065710;28;20465;-55
2023/08/09 00:11:48;;;;;;;1.30;1.20;;;21.50;99.90;;;;;;5071584;28;20464;-54
2023/08/09 00:14:15;;;;;;;2.27;1.20;;;21.50;99.90;;;;;;5067431;28;20815;-56
2023/08/09 00:16:41;;;;;;;2.80;1.33;;;21.50;99.90;;;;;;5061171;28;20460;-56
2023/08/09 00:19:10;;;;;;;1.63;1.53;;;21.50;99.90;;;;;;5063193;28;20802;-53
2023/08/09 00:21:37;;;;;;;1.40;1.20;;;21.50;99.90;;;;;;5065637;28;20468;-53
2023/08/09 00:24:04;;;;;;;1.97;1.33;;;21.40;99.90;;;;;;5064358;28;21130;-55
2023/08/09 00:26:32;;;;;;;1.53;1.37;;;21.40;99.90;;;;;;5063751;28;20461;-56
2023/08/09 00:28:58;;;;;;;3.90;1.53;;;21.40;99.90;;;;;;5067169;28;20467;-57
2023/08/09 00:31:26;;;;;;;2.50;1.20;;;21.40;99.90;;;;;;5061025;28;20987;-59
2023/08/09 00:33:53;;;;;;;1.60;1.30;;;21.40;99.90;;;;;;5063610;28;20571;-57
2023/08/09 00:36:21;;;;;;;3.50;1.30;;;21.40;99.90;;;;;;5067403;28;20460;-57
2023/08/09 00:38:49;;;;;;;2.87;1.27;;;21.40;99.90;;;;;;5066339;28;20503;-59
2023/08/09 00:41:16;;;;;;;1.27;1.07;;;21.40;99.90;;;;;;5064909;28;20486;-54
2023/08/09 00:43:43;;;;;;;1.70;1.60;;;21.40;99.90;;;;;;5064189;28;20456;-55
2023/08/09 00:46:09;;;;;;;1.40;1.30;;;21.40;99.90;;;;;;5069759;28;20461;-57
2023/08/09 00:48:36;;;;;;;1.90;1.70;;;21.40;99.90;;;;;;5069161;28;20436;-58
2023/08/09 00:51:03;;;;;;;1.30;1.10;;;21.40;99.90;;;;;;5066652;28;20464;-53
2023/08/09 00:53:32;;;;;;;2.20;1.23;;;21.40;99.90;;;;;;5066901;28;20522;-59
2023/08/09 00:55:59;;;;;;;2.07;1.30;;;21.40;99.90;;;;;;5063776;28;20465;-52
2023/08/09 00:58:25;;;;;;;1.40;1.30;;;21.40;99.90;;;;;;5065174;28;20472;-53
2023/08/09 01:00:52;;;;;;;1.73;1.50;;;21.40;99.90;;;;;;5052719;28;20483;-56
2023/08/09 01:03:19;;;;;;;1.97;1.27;;;21.40;99.90;;;;;;5069080;28;20444;-58
2023/08/09 01:05:51;;;;;;;1.80;1.10;;;21.40;99.90;;;;;;5067733;28;20460;-57
2023/08/09 01:08:25;;;;;;;4.47;1.70;;;21.40;99.90;;;;;;5067739;28;20510;-53
2023/08/09 01:10:58;;;;;;;1.40;1.30;;;21.40;99.90;;;;;;5064568;28;21060;-57
2023/08/09 01:13:27;;;;;;;1.20;1.10;;;21.40;99.90;;;;;;5065112;28;20491;-56
2023/08/09 01:15:54;;;;;;;2.33;1.50;;;21.40;99.90;;;;;;5066010;28;20463;-57
2023/08/09 01:18:22;;;;;;;1.67;1.20;;;21.40;99.90;;;;;;5069877;28;20472;-55
2023/08/09 01:20:50;;;;;;;1.50;1.40;;;21.40;99.90;;;;;;5066588;28;20487;-56
2023/08/09 01:23:19;;;;;;;2.20;1.63;;;21.40;99.90;;;;;;5066334;28;20559;-55
2023/08/09 01:25:48;;;;;;;1.83;1.47;;;21.40;99.90;;;;;;5064646;28;20456;-52
2023/08/09 01:28:16;;;;;;;1.23;1.10;;;21.40;99.90;;;;;;5070547;28;20443;-55
2023/08/09 01:30:42;;;;;;;2.33;1.47;;;21.30;99.90;;;;;;5058299;28;20492;-58
2023/08/09 01:33:09;;;;;;;2.67;1.50;;;21.30;99.90;;;;;;5070157;28;20483;-53
2023/08/09 01:35:45;;;;;;;2.07;1.53;;;21.30;99.90;;;;;;5064875;28;20220;-55
2023/08/09 01:38:19;;;;;;;1.63;1.20;;;21.30;99.90;;;;;;5068747;28;20460;-57
2023/08/09 01:40:48;;;;;;;1.50;1.20;;;21.30;99.90;;;;;;5065973;28;20480;-58
2023/08/09 01:43:16;;;;;;;3.17;1.93;;;21.30;99.90;;;;;;5068967;28;20202;-54
2023/08/09 01:45:43;;;;;;;2.23;1.10;;;21.30;99.90;;;;;;5063801;28;20543;-56
2023/08/09 01:48:09;;;;;;;1.83;1.30;;;21.30;99.90;;;;;;5064903;28;20456;-50
2023/08/09 01:50:36;;;;;;;1.53;1.40;;;21.30;99.90;;;;;;5067292;28;20918;-57
2023/08/09 01:53:03;;;;;;;1.47;1.37;;;21.30;99.90;;;;;;5073785;28;20443;-54
2023/08/09 01:55:31;;;;;;;1.88;1.30;;;21.30;99.90;;;;;;5061977;28;21453;-54
2023/08/09 01:57:59;;;;;;;2.75;1.33;;;21.30;99.90;;;;;;5067115;28;20228;-55
2023/08/09 02:00:27;;;;;;;1.77;1.33;;;21.30;99.90;;;;;;5062449;28;20911;-55
2023/08/09 02:02:54;;;;;;;1.88;1.33;;;21.30;99.90;;;;;;5066217;28;20503;-53
2023/08/09 02:05:21;;;;;;;1.60;1.30;;;21.30;99.90;;;;;;5062871;28;20210;-57
2023/08/09 02:07:50;;;;;;;1.80;1.60;;;21.30;99.90;;;;;;5070723;28;20455;-53
2023/08/09 02:10:17;;;;;;;1.53;1.17;;;21.30;99.90;;;;;;5066081;28;20205;-56
2023/08/09 02:12:47;;;;;;;1.30;1.10;;;21.30;99.90;;;;;;5068312;28;20467;-58
2023/08/09 02:15:16;;;;;;;1.30;1.20;;;21.30;99.90;;;;;;5064954;28;20455;-57
2023/08/09 02:17:43;;;;;;;2.47;1.83;;;21.30;99.90;;;;;;5072180;28;20195;-57
2023/08/09 02:20:11;;;;;;;1.10;1.00;;;21.30;99.90;;;;;;5072335;28;20566;-53
2023/08/09 02:22:39;;;;;;;1.20;1.00;;;21.30;99.90;;;;;;5072199;28;20747;-57
2023/08/09 02:25:06;;;;;;;2.20;1.23;;;21.30;99.90;;;;;;5070655;28;20672;-54
2023/08/09 02:27:33;;;;;;;2.67;1.23;;;21.30;99.90;;;;;;5065784;28;20782;-58
2023/08/09 02:30:03;;;;;;;1.75;1.17;;;21.30;99.90;;;;;;5069955;28;20964;-55
2023/08/09 02:32:31;;;;;;;1.17;1.08;;;21.30;99.90;;;;;;5068479;28;20198;-56
2023/08/09 02:34:58;;;;;;;1.58;1.15;;;21.30;99.90;;;;;;5071371;28;20276;-57
2023/08/09 02:37:25;;;;;;;1.93;1.33;;;21.30;99.90;;;;;;5066219;28;20193;-57
2023/08/09 02:39:51;;;;;;;1.50;1.40;;;21.30;99.90;;;;;;5066538;28;20541;-54
2023/08/09 02:42:18;;;;;;;2.07;1.23;;;21.20;99.90;;;;;;5063724;28;20462;-55
2023/08/09 02:44:45;;;;;;;1.75;1.33;;;21.20;99.90;;;;;;5069523;28;20804;-54
2023/08/09 02:47:12;;;;;;;4.43;1.30;;;21.20;99.90;;;;;;5067242;28;20579;-57
2023/08/09 02:49:40;;;;;;;1.20;1.00;;;21.20;99.90;;;;;;5067987;28;20206;-53
2023/08/09 02:52:07;;;;;;;2.17;1.75;;;21.20;99.90;;;;;;5070005;28;20593;-56
2023/08/09 02:54:33;;;;;;;5.20;1.30;;;21.20;99.90;;;;;;5063035;28;21047;-58
2023/08/09 02:57:00;;;;;;;1.83;1.10;;;21.20;99.90;;;;;;5064551;28;20487;-56
2023/08/09 02:59:27;;;;;;;1.30;1.00;;;21.20;99.90;;;;;;5066091;28;20204;-61
2023/08/09 03:01:53;;;;;;;2.85;1.30;;;21.20;99.90;;;;;;5066693;28;20479;-54
2023/08/09 03:04:20;;;;;;;2.40;1.50;;;21.20;99.90;;;;;;5064700;28;20206;-53
2023/08/09 03:06:48;;;;;;;1.55;1.25;;;21.20;99.90;;;;;;5067836;28;20451;-50
2023/08/09 03:09:15;;;;;;;1.80;1.30;;;21.20;99.90;;;;;;5068365;28;20554;-54
2023/08/09 03:11:42;;;;;;;1.20;1.00;;;21.20;99.90;;;;;;5063394;28;20779;-57
2023/08/09 03:14:10;;;;;;;1.55;1.33;;;21.20;99.90;;;;;;5065860;28;20460;-50
2023/08/09 03:16:36;;;;;;;1.80;1.47;;;21.20;99.90;;;;;;5065039;28;20218;-55
2023/08/09 03:19:03;;;;;;;1.60;1.50;;;21.20;99.90;;;;;;5070810;28;20854;-58
2023/08/09 03:21:30;;;;;;;1.67;1.15;;;21.20;99.90;;;;;;5065903;28;20234;-53
2023/08/09 03:23:58;;;;;;;1.95;1.27;;;21.20;99.90;;;;;;5065194;28;20194;-53
2023/08/09 03:26:26;;;;;;;1.50;1.40;;;21.20;99.90;;;;;;5069752;28;20213;-57
2023/08/09 03:28:53;;;;;;;2.28;1.30;;;21.20;99.90;;;;;;5066343;28;20205;-57
2023/08/09 03:31:20;;;;;;;1.42;1.20;;;21.20;99.90;;;;;;5062677;28;20205;-57
2023/08/09 03:33:47;;;;;;;1.90;1.65;;;21.20;99.90;;;;;;5066700;28;20202;-54
2023/08/09 03:36:13;;;;;;;2.08;1.92;;;21.20;99.90;;;;;;5066562;28;20198;-60
2023/08/09 03:38:40;;;;;;;1.93;1.40;;;21.20;99.90;;;;;;5066992;28;20201;-56
2023/08/09 03:41:08;;;;;;;1.95;1.40;;;21.20;99.90;;;;;;5066653;28;20578;-52
2023/08/09 03:43:36;;;;;;;2.07;1.20;;;21.20;99.90;;;;;;5065043;28;20205;-55
2023/08/09 03:46:04;;;;;;;2.00;1.27;;;21.20;99.90;;;;;;5065549;28;20540;-54
2023/08/09 03:48:31;;;;;;;1.83;1.50;;;21.20;99.90;;;;;;5063427;28;20224;-58
2023/08/09 03:50:57;;;;;;;1.50;1.30;;;21.20;99.90;;;;;;5066248;28;21285;-55
2023/08/09 03:53:24;;;;;;;1.20;1.10;;;21.20;99.90;;;;;;5067602;28;20805;-54
2023/08/09 03:55:51;;;;;;;1.65;1.55;;;21.20;99.90;;;;;;5064016;28;20464;-57
2023/08/09 03:58:19;;;;;;;3.15;1.50;;;21.20;99.90;;;;;;5063111;28;20219;-58
2023/08/09 04:00:45;;;;;;;1.30;1.20;;;21.10;99.90;;;;;;5060378;28;20237;-57
2023/08/09 04:03:13;;;;;;;1.95;1.15;;;21.10;99.90;;;;;;5060081;28;20952;-56
2023/08/09 04:05:39;;;;;;;1.27;1.17;;;21.20;99.90;;;;;;5057855;28;20705;-56
2023/08/09 04:08:07;;;;;;;1.20;1.10;;;21.20;99.90;;;;;;5065616;28;20202;-58
2023/08/09 04:10:33;;;;;;;1.70;1.30;;;21.10;99.90;;;;;;5063714;28;20546;-57
2023/08/09 04:13:00;;;;;;;1.40;1.20;;;21.10;99.90;;;;;;5065639;28;20198;-58
2023/08/09 04:15:28;;;;;;;1.38;1.17;;;21.10;99.90;;;;;;5061953;28;20202;-56
2023/08/09 04:17:55;;;;;;;1.88;1.17;;;21.10;99.90;;;;;;5065141;28;20201;-56
2023/08/09 04:20:22;;;;;;;1.55;1.20;;;21.10;99.90;;;;;;5062518;28;20209;-60
2023/08/09 04:22:49;;;;;;;3.03;1.50;;;21.10;99.90;;;;;;5063010;28;20340;-51
2023/08/09 04:25:17;;;;;;;1.75;1.50;;;21.10;99.90;;;;;;5061728;28;20333;-57
2023/08/09 04:27:44;;;;;;;1.27;1.17;;;21.10;99.90;;;;;;5063748;28;20198;-57
2023/08/09 04:30:12;;;;;;;1.60;1.38;;;21.10;99.90;;;;;;5063631;28;20696;-57
2023/08/09 04:32:40;;;;;;;1.40;1.25;;;21.10;99.90;;;;;;5058948;28;20230;-55
2023/08/09 04:35:09;;;;;;;1.70;1.25;;;21.10;99.90;;;;;;5060951;28;20603;-55
2023/08/09 04:37:36;;;;;;;1.73;1.30;;;21.10;99.90;;;;;;5061524;28;20205;-59
2023/08/09 04:40:07;;;;;;;2.63;1.33;;;21.10;99.90;;;;;;5062131;28;20202;-56
2023/08/09 04:42:34;;;;;;;1.63;1.23;;;21.10;99.90;;;;;;5067628;28;20258;-58
2023/08/09 04:45:01;;;;;;;1.90;1.23;;;21.10;99.90;;;;;;5067271;28;20191;-55
2023/08/09 04:47:28;;;;;;;1.38;1.05;;;21.10;99.90;;;;;;5063112;28;20463;-56
2023/08/09 04:49:56;;;;;;;1.35;1.25;;;21.10;99.90;;;;;;5069388;28;20210;-60
2023/08/09 04:52:22;;;;;;;1.30;1.10;;;21.10;99.90;;;;;;5067300;28;20195;-56
2023/08/09 04:54:49;;;;;;;1.48;1.23;;;21.10;99.90;;;;;;5062674;28;20297;-53
2023/08/09 04:57:16;;;;;;;1.63;1.10;;;21.10;99.90;;;;;;5066549;28;20497;-53
2023/08/09 04:59:43;;;;;;;1.48;1.33;;;21.10;99.90;;;;;;5066967;28;20195;-61
2023/08/09 05:02:09;;;;;;;1.20;1.10;;;21.10;99.90;;;;;;5064203;28;20233;-58
2023/08/09 05:04:36;;;;;;;1.20;1.10;;;21.10;99.90;;;;;;5065050;28;20210;-55
2023/08/09 05:07:04;;;;;;;1.60;1.15;;;21.10;99.90;;;;;;5062717;28;21128;-54
2023/08/09 05:09:31;;;;;;;1.30;1.20;;;21.10;99.90;;;;;;5061052;28;20186;-57
2023/08/09 05:11:58;;;;;;;1.40;1.20;;;21.10;99.90;;;;;;5066568;28;20200;-55
2023/08/09 05:14:26;;;;;;;1.55;1.45;;;21.10;99.90;;;;;;5062343;28;20538;-58
2023/08/09 05:16:52;;;;;;;1.40;1.25;;;21.00;99.90;;;;;;5063841;28;20197;-61
2023/08/09 05:19:19;;;;;;;1.35;1.25;;;21.10;99.90;;;;;;5069761;28;20201;-56
2023/08/09 05:21:46;;;;;;;1.30;1.20;;;21.10;99.90;;;;;;5066295;28;20218;-58
2023/08/09 05:24:15;;;;;;;1.40;1.27;;;21.10;99.90;;;;;;5064035;28;20198;-61
2023/08/09 05:26:41;;;;;;;1.30;1.20;;;21.10;99.90;;;;;;5068084;28;20213;-54
2023/08/09 05:29:08;;;;;;;1.52;1.42;;;21.10;99.90;;;;;;5067932;28;20202;-59
2023/08/09 05:31:35;;;;;;;1.98;1.10;;;21.10;99.90;;;;;;5064055;28;20284;-56
2023/08/09 05:34:01;;;;;;;2.17;1.60;;;21.10;99.90;;;;;;5065326;28;20206;-60
2023/08/09 05:36:28;;;;;;;1.77;1.60;;;21.10;99.90;;;;;;5063200;28;20554;-54
2023/08/09 05:38:55;;;;;;;2.20;1.20;;;21.00;99.90;;;;;;5061946;28;20606;-54
2023/08/09 05:41:23;;;;;;;3.65;1.02;;;21.10;99.90;;;;;;5060488;28;20222;-53
2023/08/09 05:43:50;;;;;;;1.42;0.90;;;21.00;99.90;;;;;;5062271;28;20197;-52
2023/08/09 05:46:16;;;;;;;1.60;1.50;;;21.10;99.90;;;;;;5059514;28;20195;-53
2023/08/09 05:48:43;;;;;;;1.30;1.00;;;21.00;99.90;;;;;;5062074;28;20202;-53
2023/08/09 05:51:10;;;;;;;1.20;1.02;;;21.00;99.90;;;;;;5064651;28;20215;-54
2023/08/09 05:53:37;;;;;;;1.23;1.13;;;21.00;99.90;;;;;;5062221;28;20279;-59
2023/08/09 05:56:04;;;;;;;1.55;1.13;;;21.00;99.90;;;;;;5064655;28;20545;-59
2023/08/09 05:58:32;;;;;;;1.10;0.95;;;21.00;99.90;;;;;;5063228;28;20191;-57
2023/08/09 06:00:59;;;;;;;1.85;1.30;;;21.00;99.90;;;;;;5061240;28;20448;-53
2023/08/09 06:03:25;;;;;;;1.35;1.25;;;21.00;99.90;;;;;;5062323;28;20191;-61
2023/08/09 06:05:55;;;;;;;1.30;1.20;;;21.00;99.90;;;;;;5063622;28;20282;-55
2023/08/09 06:08:21;;;;;;;2.78;1.38;;;21.00;99.90;;;;;;5064931;28;20564;-56
2023/08/09 06:10:48;;;;;;;1.85;1.10;;;21.00;99.90;;;;;;5061534;28;20209;-54
2023/08/09 06:13:15;;;;;;;1.00;0.90;;;21.00;99.90;;;;;;5064340;28;20229;-57
2023/08/09 06:15:43;;;;;;;1.55;1.30;;;21.00;99.90;;;;;;5061254;28;20195;-53
2023/08/09 06:18:09;;;;;;;1.50;1.40;;;21.00;99.90;;;;;;5060814;28;20738;-54
2023/08/09 06:20:36;;;;;;;1.60;1.10;;;21.00;99.90;;;;;;5063293;28;20197;-54
2023/08/09 06:23:03;;;;;;;1.73;1.00;;;21.00;99.90;;;;;;5064998;28;20643;-56
2023/08/09 06:25:30;;;;;;;1.58;1.00;;;21.00;99.90;;;;;;5061688;28;20194;-54
2023/08/09 06:27:57;;;;;;;1.33;1.10;;;21.00;99.90;;;;;;5065840;28;20824;-54
2023/08/09 06:30:24;;;;;;;1.20;1.10;;;21.00;99.90;;;;;;5055963;28;20199;-55
2023/08/09 06:32:53;;;;;;;2.70;1.60;;;21.00;99.90;;;;;;5066404;28;20201;-56
2023/08/09 06:35:20;;;;;;;1.45;1.30;;;21.00;99.90;;;;;;5066048;28;20201;-54
2023/08/09 06:37:48;;;;;;;1.60;1.20;;;21.00;99.90;;;;;;5066988;28;20752;-50
2023/08/09 06:40:16;;;;;;;1.10;0.98;;;21.00;99.90;;;;;;5064879;28;20214;-57
2023/08/09 06:42:42;;;;;;;1.35;1.10;;;21.00;99.90;;;;;;5067275;28;20220;-55
2023/08/09 06:45:10;;;;;;;1.10;1.00;;;21.00;99.90;;;;;;5068358;28;20201;-59
2023/08/09 06:47:37;;;;;;;1.30;1.13;;;21.00;99.90;;;;;;5066647;28;20211;-57
2023/08/09 06:50:06;;;;;;;1.48;1.10;;;21.00;99.90;;;;;;5068896;28;20189;-56
2023/08/09 06:52:36;;;;;;;1.80;1.42;;;21.00;99.90;;;;;;5069965;28;21435;-57
2023/08/09 06:55:03;;;;;;;1.55;1.25;;;21.00;99.90;;;;;;5064056;28;20194;-54
2023/08/09 06:57:29;;;;;;;1.35;1.10;;;21.00;99.90;;;;;;5063562;28;20399;-52
2023/08/09 06:59:57;;;;;;;1.27;1.00;;;21.00;99.90;;;;;;5062399;28;20649;-54
2023/08/09 07:02:24;;;;;;;1.20;0.90;;;21.00;99.90;;;;;;5061484;28;20382;-53
2023/08/09 07:04:54;;;;;;;1.15;0.82;;;21.00;99.90;;;;;;5062884;28;20218;-56
2023/08/09 07:07:22;;;;;;;1.60;1.10;;;21.00;99.90;;;;;;5069863;28;20193;-55
2023/08/09 07:09:51;;;;;;;1.27;1.15;;;21.00;99.90;;;;;;5066534;28;20202;-54
2023/08/09 07:12:17;;;;;;;1.67;1.10;;;21.00;99.90;;;;;;5076251;28;20200;-52
2023/08/09 07:14:45;;;;;;;1.80;1.40;;;21.00;99.90;;;;;;5059245;28;20198;-56
2023/08/09 07:17:12;;;;;;;1.33;1.02;;;21.00;99.90;;;;;;5063860;28;20183;-54
2023/08/09 07:19:38;;;;;;;2.00;1.30;;;21.00;99.90;;;;;;5067603;28;20194;-56
2023/08/09 07:22:05;;;;;;;1.20;1.00;;;21.10;99.90;;;;;;5069458;28;20698;-54
2023/08/09 07:24:33;;;;;;;1.52;1.13;;;21.00;99.90;;;;;;5067371;28;20543;-58
2023/08/09 07:27:00;;;;;;;1.63;1.35;;;21.00;99.90;;;;;;5066602;28;20206;-56
2023/08/09 07:29:27;;;;;;;1.65;1.05;;;21.00;99.90;;;;;;5067619;28;20223;-59
2023/08/09 07:31:53;;;;;;;1.30;1.10;;;21.00;99.90;;;;;;5062519;28;20202;-58
2023/08/09 07:34:20;;;;;;;1.23;1.13;;;21.10;99.90;;;;;;5066649;28;20205;-55
2023/08/09 07:36:47;;;;;;;1.10;1.00;;;21.00;99.90;;;;;;5065109;28;20194;-54
2023/08/09 07:39:14;;;;;;;1.00;0.90;;;21.10;99.90;;;;;;5065982;28;20197;-59
2023/08/09 07:41:42;;;;;;;1.30;1.00;;;21.10;99.90;;;;;;5068396;28;20225;-55
2023/08/09 07:44:08;;;;;;;1.48;1.38;;;21.10;99.90;;;;;;5065686;28;20198;-56
2023/08/09 07:46:35;;;;;;;2.65;1.25;;;21.10;99.90;;;;;;5064196;28;20198;-52
2023/08/09 07:49:03;;;;;;;1.65;1.30;;;21.10;99.90;;;;;;5062882;28;20764;-53
2023/08/09 07:51:30;;;;;;;2.67;1.55;;;21.10;99.90;;;;;;5061721;28;20202;-57
2023/08/09 07:53:56;;;;;;;1.83;1.60;;;21.00;99.90;;;;;;5060585;28;20203;-51
2023/08/09 07:56:23;;;;;;;1.60;1.50;;;21.10;99.90;;;;;;5063047;28;20214;-55
2023/08/09 07:58:53;;;;;;;1.33;1.23;;;21.10;99.90;;;;;;5061099;28;20209;-52
2023/08/09 08:01:20;;;;;;;1.30;1.20;;;21.10;99.90;;;;;;5063580;28;20190;-56
2023/08/09 08:03:46;;;;;;;2.10;1.90;;;21.10;99.90;;;;;;5061568;28;20214;-54
2023/08/09 08:06:14;;;;;;;2.05;1.85;;;21.10;99.90;;;;;;5053284;28;20199;-56
2023/08/09 08:08:41;;;;;;;2.50;2.30;;;21.10;99.90;;;;;;5064406;28;20206;-55
2023/08/09 08:11:08;;;;;;;2.65;2.38;;;21.10;99.90;;;;;;5065662;28;20205;-52
2023/08/09 08:13:35;;;;;;;3.38;2.38;;;21.10;99.90;;;;;;5057109;28;20194;-54
2023/08/09 08:16:04;;;;;;;3.00;2.70;;;21.10;99.90;;;;;;5064175;28;20206;-56
2023/08/09 08:18:31;;;;;;;3.17;2.67;;;21.10;99.90;;;;;;5062730;28;20203;-55
2023/08/09 08:20:59;;;;;;;11.82;3.60;;;21.10;99.90;;;;;;5066170;28;20594;-55
2023/08/09 08:23:26;;;;;;;3.50;3.22;;;21.10;99.90;;;;;;5065950;28;20535;-54
2023/08/09 08:25:55;;;;;;;2.60;2.40;;;21.10;99.90;;;;;;5064281;28;20202;-57
2023/08/09 08:28:22;;;;;;;3.22;3.00;;;21.10;99.90;;;;;;5067119;28;20252;-56
2023/08/09 08:30:48;;;;;;;3.38;3.08;;;21.10;99.90;;;;;;5067033;28;20198;-53
2023/08/09 08:33:17;;;;;;;3.70;3.40;;;21.10;99.90;;;;;;5060885;28;20206;-51
2023/08/09 08:35:44;;;;;;;3.67;3.38;;;21.10;99.90;;;;;;5061404;28;20190;-54
2023/08/09 08:38:11;;;;;;;3.33;3.13;;;21.10;99.90;;;;;;5062805;28;20842;-51
2023/08/09 08:40:39;;;;;;;3.65;3.20;;;21.10;99.90;;;;;;5056181;28;20540;-49
2023/08/09 08:43:08;;;;;;;4.23;3.40;;;21.10;99.90;;;;;;5066966;28;20299;-52
2023/08/09 08:45:38;;;;;;;4.18;3.67;;;21.10;99.90;;;;;;5059022;28;20457;-50
2023/08/09 08:48:07;;;;;;;6.55;3.75;;;21.10;99.90;;;;;;5068019;28;20554;-53
2023/08/09 08:50:37;;;;;;;4.13;3.83;;;21.20;99.90;;;;;;5066455;28;22015;-53
2023/08/09 08:53:05;;;;;;;3.55;3.35;;;21.20;99.90;;;;;;5060459;28;20991;-51
2023/08/09 08:55:32;;;;;;;3.88;3.58;;;21.20;99.90;;;;;;5059216;28;20281;-55
2023/08/09 08:57:58;;;;;;;3.40;3.17;;;21.20;99.90;;;;;;5061081;28;20217;-56
2023/08/09 09:00:25;;;;;;;3.65;3.03;;;21.20;99.90;;;;;;5054102;28;20530;-52
2023/08/09 09:02:52;;;;;;;3.42;3.13;;;21.20;99.90;;;;;;5062644;28;20221;-53
2023/08/09 09:05:19;;;;;;;3.20;3.00;;;21.20;99.90;;;;;;5061570;28;20209;-49
2023/08/09 09:07:50;;;;;;;4.00;3.70;;;21.20;99.90;;;;;;5062840;28;20201;-58
2023/08/09 09:10:18;;;;;;;3.13;2.88;;;21.20;99.90;;;;;;5064151;28;20204;-54
2023/08/09 09:12:46;;;;;;;4.32;3.92;;;21.20;99.90;;;;;;5067393;28;20190;-48
2023/08/09 09:15:14;;;;;;;4.07;3.78;;;21.20;99.90;;;;;;5062353;28;20618;-53
2023/08/09 09:17:42;;;;;;;3.40;3.10;;;21.20;99.90;;;;;;5067106;28;20194;-52
2023/08/09 09:20:18;;;;;;;4.03;3.72;;;21.20;99.90;;;;;;5062469;28;20231;-51
2023/08/09 09:22:47;;;;;;;4.53;3.65;;;21.20;99.90;;;;;;5064736;28;20252;-55
2023/08/09 09:25:17;;;;;;;3.65;3.38;;;21.20;99.90;;;;;;5062856;28;20281;-54
2023/08/09 09:27:46;;;;;;;3.50;3.20;;;21.20;99.90;;;;;;5067982;28;20194;-57
2023/08/09 09:30:13;;;;;;;3.70;3.40;;;21.20;99.90;;;;;;5055547;28;20204;-62
2023/08/09 09:32:52;;;;;;;3.60;3.30;;;21.20;99.90;;;;;;5064200;28;20233;-51
2023/08/09 09:35:19;;;;;;;3.15;2.40;;;21.20;99.90;;;;;;5064466;28;20473;-59
2023/08/09 09:37:48;;;;;;;3.35;3.05;;;21.20;99.90;;;;;;5065215;28;20193;-65
2023/08/09 09:40:22;;;;;;;2.63;2.37;;;21.10;99.90;;;;;;5063977;28;20204;-63
2023/08/09 09:42:52;;;;;;;3.58;2.42;;;21.10;99.80;;;;;;5056581;28;20979;-62
2023/08/09 09:45:23;;;;;;;2.35;2.10;;;21.10;99.10;;;;;;5053259;28;20473;-64
2023/08/09 09:47:50;;;;;;;2.28;2.03;;;21.10;98.80;;;;;;5060890;28;20207;-63
2023/08/09 09:50:18;;;;;;;2.38;2.05;;;21.10;98.70;;;;;;5064861;28;20196;-57
2023/08/09 09:52:46;;;;;;;2.53;1.83;;;21.10;98.60;;;;;;5065263;28;20208;-55
2023/08/09 09:55:17;;;;;;;2.00;1.80;;;21.10;97.90;;;;;;5066219;28;21059;-58
2023/08/09 09:57:44;;;;;;;4.63;2.00;;;21.10;97.30;;;;;;5062758;28;20789;-60
2023/08/09 10:00:14;;;;;;;2.50;1.93;;;21.10;96.50;;;;;;5062937;28;20456;-55
2023/08/09 10:02:46;;;;;;;3.25;2.17;;;21.00;96.40;;;;;;5061644;28;20481;-58
2023/08/09 10:05:15;;;;;;;3.00;2.75;;;21.00;96.40;;;;;;5061713;28;20208;-58
2023/08/09 10:07:44;;;;;;;3.80;1.80;;;21.00;96.40;;;;;;5065193;28;20206;-66
2023/08/09 10:10:10;;;;;;;3.40;1.98;;;21.10;96.30;;;;;;5064394;28;20199;-51
2023/08/09 10:12:41;;;;;;;2.83;2.40;;;21.10;96.80;;;;;;5056274;28;20820;-60
2023/08/09 10:15:11;;;;;;;2.97;2.25;;;21.10;96.80;;;;;;5061733;28;20202;-60
2023/08/09 10:17:39;;;;;;;2.53;2.33;;;21.20;97.40;;;;;;5064912;28;20504;-60
2023/08/09 10:20:10;;;;;;;2.30;2.10;;;21.20;97.50;;;;;;5064637;28;20464;-54
2023/08/09 10:22:37;;;;;;;2.40;2.00;;;21.30;97.50;;;;;;5063067;28;20709;-55
2023/08/09 10:25:04;;;;;;;2.40;2.00;;;21.30;97.70;;;;;;5059321;28;21986;-54
2023/08/09 10:27:53;;;;;;;2.40;2.20;;;21.40;97.80;;;;;;5058079;28;20202;-60
2023/08/09 10:30:25;;;;;;;3.67;2.50;;;21.40;97.20;;;;;;5065387;28;20459;-56
2023/08/09 10:32:53;;;;;;;2.90;2.20;;;21.40;96.50;;;;;;5067195;28;20555;-53
2023/08/09 10:35:33;;;;;;;3.30;3.00;;;21.40;96.40;;;;;;5063812;28;20459;-51
2023/08/09 10:38:00;;;;;;;5.10;3.10;;;21.40;96.00;;;;;;5070723;28;20811;-54
2023/08/09 10:40:36;;;;;;;3.63;2.23;;;21.40;96.00;;;;;;5064472;28;20857;-59
2023/08/09 10:43:04;;;;;;;3.00;2.80;;;21.40;96.30;;;;;;5068628;28;20502;-59
2023/08/09 10:45:31;;;;;;;4.10;3.63;;;21.40;96.00;;;;;;5067702;28;20960;-53
2023/08/09 10:48:16;;;;;;;4.00;3.70;;;21.40;95.80;;;;;;5068852;28;20475;-61
2023/08/09 10:50:43;;;;;;;4.23;3.30;;;21.40;95.90;;;;;;5061650;28;20623;-56
2023/08/09 10:53:10;;;;;;;3.40;3.10;;;21.50;95.60;;;;;;5065831;28;20460;-60
2023/08/09 10:55:37;;;;;;;4.30;3.33;;;21.50;95.60;;;;;;5064787;28;20471;-51
2023/08/09 10:58:06;;;;;;;3.50;3.20;;;21.50;95.70;;;;;;5066638;28;20900;-58
2023/08/09 11:00:41;;;;;;;5.10;3.70;;;21.60;95.90;;;;;;5065630;28;20456;-53
2023/08/09 11:03:09;;;;;;;5.57;3.87;;;21.60;96.10;;;;;;5067764;28;20975;-53
2023/08/09 11:05:37;;;;;;;3.80;3.23;;;21.60;95.40;;;;;;5064776;28;20956;-58
2023/08/09 11:08:11;;;;;;;4.73;4.33;;;21.60;94.20;;;;;;5066187;28;20468;-56
2023/08/09 11:10:39;;;;;;;4.60;4.20;;;21.60;94.00;;;;;;5066066;28;20465;-58
2023/08/09 11:13:10;;;;;;;4.67;3.87;;;21.60;93.90;;;;;;5067933;28;20476;-59
2023/08/09 11:15:38;;;;;;;4.00;3.70;;;21.60;93.40;;;;;;5064601;28;20487;-61
2023/08/09 11:18:05;;;;;;;3.80;3.40;;;21.60;93.40;;;;;;5067510;28;20935;-59
2023/08/09 11:20:33;;;;;;;10.03;3.80;;;21.60;93.80;;;;;;5063728;28;20465;-54
2023/08/09 11:23:01;;;;;;;3.40;3.10;;;21.70;94.20;;;;;;5067161;28;20475;-56
2023/08/09 11:25:31;;;;;;;5.33;3.93;;;21.70;94.30;;;;;;5067055;28;20808;-60
2023/08/09 11:27:59;;;;;;;3.97;3.23;;;21.70;94.50;;;;;;5069681;28;20522;-58
2023/08/09 11:30:31;;;;;;;4.30;3.60;;;21.70;94.50;;;;;;5065163;28;20449;-59
2023/08/09 11:32:58;;;;;;;6.40;2.90;;;21.70;94.80;;;;;;5070941;28;20940;-61
2023/08/09 11:35:26;;;;;;;3.53;3.23;;;21.80;94.80;;;;;;5066196;28;20990;-51
2023/08/09 11:37:53;;;;;;;3.53;3.10;;;21.70;94.80;;;;;;5071647;28;20791;-58
2023/08/09 11:40:20;;;;;;;4.90;2.97;;;21.80;95.00;;;;;;5065735;28;20487;-56
2023/08/09 11:42:47;;;;;;;3.70;3.40;;;21.80;95.00;;;;;;5067201;28;20459;-56
2023/08/09 11:45:14;;;;;;;3.83;3.53;;;21.80;95.20;;;;;;5069917;28;20506;-53
2023/08/09 11:47:49;;;;;;;3.80;2.80;;;21.80;95.30;;;;;;5063562;28;20459;-55
2023/08/09 11:50:21;;;;;;;3.50;3.23;;;21.80;95.20;;;;;;5064507;28;20466;-57
2023/08/09 11:52:48;;;;;;;4.00;3.10;;;21.80;94.50;;;;;;5068993;28;20531;-55
2023/08/09 11:55:15;;;;;;;4.53;2.60;;;21.90;94.40;;;;;;5065595;28;21039;-53
2023/08/09 11:57:41;;;;;;;4.00;2.53;;;21.90;93.90;;;;;;5065634;28;20483;-55
2023/08/09 12:00:10;;;;;;;4.13;3.03;;;21.90;93.80;;;;;;5062955;28;20453;-59
2023/08/09 12:02:37;;;;;;;2.93;2.63;;;21.90;94.00;;;;;;5066603;28;20476;-59
2023/08/09 12:05:11;;;;;;;4.27;2.70;;;21.90;94.20;;;;;;5062924;28;20470;-50
2023/08/09 12:07:38;;;;;;;7.60;3.47;;;21.90;94.60;;;;;;5064552;28;20816;-55
2023/08/09 12:10:10;;;;;;;3.10;2.90;;;21.90;94.60;;;;;;5061894;28;20460;-57
2023/08/09 12:12:38;;;;;;;3.40;3.10;;;21.90;94.80;;;;;;5059902;28;21067;-53
2023/08/09 12:15:05;;;;;;;4.33;3.27;;;21.90;94.80;;;;;;5061350;28;20468;-56
2023/08/09 12:17:34;;;;;;;3.77;2.80;;;21.90;95.40;;;;;;5059897;28;20466;-54
2023/08/09 12:20:04;;;;;;;3.57;3.27;;;21.90;95.20;;;;;;5059943;28;20886;-56
2023/08/09 12:22:32;;;;;;;3.40;3.10;;;21.90;95.10;;;;;;5060516;28;20541;-59
2023/08/09 12:24:59;;;;;;;3.63;3.00;;;21.90;95.10;;;;;;5062345;28;20483;-58
2023/08/09 12:27:27;;;;;;;5.30;3.50;;;21.90;95.10;;;;;;5061983;28;20471;-53
2023/08/09 12:29:53;;;;;;;2.97;2.30;;;22.00;95.30;;;;;;5061002;28;20869;-54
2023/08/09 12:32:20;;;;;;;3.00;2.53;;;22.00;95.40;;;;;;5062148;28;20464;-55
2023/08/09 12:34:48;;;;;;;3.20;3.00;;;22.00;95.40;;;;;;5063955;28;20472;-54
2023/08/09 12:37:15;;;;;;;3.10;2.80;;;22.00;95.50;;;;;;5060998;28;20501;-54
2023/08/09 12:39:43;;;;;;;2.67;2.47;;;22.00;95.50;;;;;;5062031;28;20907;-49
2023/08/09 12:42:10;;;;;;;2.90;2.70;;;22.00;95.50;;;;;;5062138;28;20453;-54
2023/08/09 12:44:38;;;;;;;2.93;2.70;;;22.00;95.60;;;;;;5062397;28;21659;-50
2023/08/09 12:47:05;;;;;;;3.20;2.90;;;22.00;95.60;;;;;;5062451;28;20464;-59
2023/08/09 12:49:32;;;;;;;2.80;2.57;;;22.00;95.60;;;;;;5064644;28;20570;-58
2023/08/09 12:51:58;;;;;;;2.77;2.57;;;22.00;95.60;;;;;;5065745;28;20844;-58